createdAt,value
2023-04-20T00:01:48.406Z,97358.11
2023-04-20T00:04:16.992Z,97354.38
2023-04-20T00:06:45.630Z,97349.02
2023-04-20T00:09:15.690Z,97349.08
2023-04-20T00:11:43.935Z,97351.23
2023-04-20T00:14:12.203Z,97350.92
2023-04-20T00:16:40.897Z,97348.26
2023-04-20T00:19:09.484Z,97350.52
2023-04-20T00:21:37.649Z,97351.88
2023-04-20T00:24:06.994Z,97355.34
2023-04-20T00:26:35.450Z,97352.77
2023-04-20T00:29:04.424Z,97353.73
2023-04-20T00:31:33.005Z,97351.36
2023-04-20T00:34:01.190Z,97352.44
2023-04-20T00:36:30.155Z,97350.66
2023-04-20T00:39:00.125Z,97349.44
2023-04-20T00:41:30.104Z,97348.79
2023-04-20T00:44:00.939Z,97349.92
2023-04-20T00:46:28.976Z,97347.41
2023-04-20T00:48:58.928Z,97345.06
2023-04-20T00:51:28.131Z,97345.72
2023-04-20T00:53:56.710Z,97343.59
2023-04-20T00:56:26.417Z,97340.69
2023-04-20T00:58:54.922Z,97343.07
2023-04-20T01:01:23.696Z,97343.80
2023-04-20T01:03:52.128Z,97345.61
2023-04-20T01:06:20.244Z,97346.67
2023-04-20T01:08:52.209Z,97350.61
2023-04-20T01:11:20.273Z,97349.58
2023-04-20T01:13:49.371Z,97351.85
2023-04-20T01:16:17.600Z,97351.07
2023-04-20T01:18:48.507Z,97347.65
2023-04-20T01:21:18.911Z,97346.41
2023-04-20T01:23:47.510Z,97347.90
2023-04-20T01:26:18.533Z,97350.21
2023-04-20T01:28:46.739Z,97350.20
2023-04-20T01:31:17.217Z,97351.66
2023-04-20T01:33:45.406Z,97349.44
2023-04-20T01:36:13.996Z,97345.23
2023-04-20T01:38:42.063Z,97345.23
2023-04-20T01:41:11.075Z,97340.34
2023-04-20T01:43:40.264Z,97343.66
2023-04-20T01:46:08.337Z,97352.28
2023-04-20T01:48:36.523Z,97352.77
2023-04-20T01:51:04.676Z,97349.20
2023-04-20T01:53:34.292Z,97346.80
2023-04-20T01:56:02.563Z,97347.27
2023-04-20T01:58:31.472Z,97349.89
2023-04-20T02:01:02.727Z,97344.62
2023-04-20T02:03:31.094Z,97347.04
2023-04-20T02:05:59.355Z,97346.41
2023-04-20T02:08:29.988Z,97345.02
2023-04-20T02:10:58.183Z,97345.52
2023-04-20T02:13:26.646Z,97347.45
2023-04-20T02:15:54.926Z,97346.14
2023-04-20T02:18:24.730Z,97348.52
2023-04-20T02:20:53.523Z,97347.39
2023-04-20T02:23:22.017Z,97347.14
2023-04-20T02:25:50.495Z,97349.70
2023-04-20T02:28:18.556Z,97355.04
2023-04-20T02:30:46.629Z,97354.05
2023-04-20T02:33:14.694Z,97351.71
2023-04-20T02:35:42.762Z,97351.42
2023-04-20T02:38:12.214Z,97349.17
2023-04-20T02:40:40.953Z,97347.98
2023-04-20T02:43:09.444Z,97347.58
2023-04-20T02:45:39.265Z,97350.56
2023-04-20T02:48:07.443Z,97348.98
2023-04-20T02:50:38.062Z,97344.08
2023-04-20T02:53:16.368Z,97341.11
2023-04-20T02:55:46.496Z,97341.02
2023-04-20T02:58:29.520Z,97343.17
2023-04-20T03:01:23.953Z,97346.02
2023-04-20T03:03:57.867Z,97343.40
2023-04-20T03:06:26.824Z,97340.27
2023-04-20T03:08:56.928Z,97341.59
2023-04-20T03:11:45.797Z,97345.27
2023-04-20T03:14:18.771Z,97353.73
2023-04-20T03:16:47.662Z,97358.56
2023-04-20T03:19:16.430Z,97360.02
2023-04-20T03:21:45.539Z,97360.50
2023-04-20T03:24:13.836Z,97360.77
2023-04-20T03:26:42.728Z,97359.98
2023-04-20T03:29:20.777Z,97359.92
2023-04-20T03:31:49.110Z,97362.30
2023-04-20T03:34:17.435Z,97361.44
2023-04-20T03:36:45.772Z,97359.36
2023-04-20T03:39:13.926Z,97356.45
2023-04-20T03:41:41.998Z,97358.37
2023-04-20T03:44:10.283Z,97363.73
2023-04-20T03:46:38.346Z,97366.82
2023-04-20T03:49:06.933Z,97368.86
2023-04-20T03:51:34.928Z,97373.99
2023-04-20T03:54:03.077Z,97368.31
2023-04-20T03:56:31.471Z,97372.03
2023-04-20T03:58:59.726Z,97374.35
2023-04-20T04:01:28.409Z,97375.88
2023-04-20T04:03:56.584Z,97376.83
2023-04-20T04:06:25.083Z,97375.88
2023-04-20T04:08:53.854Z,97376.71
2023-04-20T04:11:21.954Z,97380.21
2023-04-20T04:13:50.201Z,97384.52
2023-04-20T04:16:18.637Z,97385.08
2023-04-20T04:18:47.278Z,97380.49
2023-04-20T04:21:15.309Z,97380.72
2023-04-20T04:23:46.279Z,97384.69
2023-04-20T04:26:24.877Z,97387.92
2023-04-20T04:28:53.749Z,97387.58
2023-04-20T04:31:23.693Z,97388.58
2023-04-20T04:33:52.394Z,97385.66
2023-04-20T04:36:27.436Z,97381.05
2023-04-20T04:38:57.154Z,97378.67
2023-04-20T04:41:25.666Z,97380.77
2023-04-20T04:43:54.709Z,97380.93
2023-04-20T04:46:27.965Z,97382.11
2023-04-20T04:49:01.319Z,97383.62
2023-04-20T04:51:29.372Z,97383.35
2023-04-20T04:53:57.557Z,97381.55
2023-04-20T04:56:25.945Z,97378.32
2023-04-20T04:58:54.202Z,97376.45
2023-04-20T05:01:22.410Z,97380.95
2023-04-20T05:03:51.833Z,97384.66
2023-04-20T05:06:20.250Z,97386.61
2023-04-20T05:08:48.703Z,97387.96
2023-04-20T05:11:16.812Z,97391.86
2023-04-20T05:13:44.944Z,97397.80
2023-04-20T05:16:13.159Z,97401.63
2023-04-20T05:18:41.339Z,97405.59
2023-04-20T05:21:09.370Z,97405.45
2023-04-20T05:23:37.390Z,97402.20
2023-04-20T05:26:06.379Z,97398.81
2023-04-20T05:28:34.968Z,97399.27
2023-04-20T05:31:02.877Z,97399.44
2023-04-20T05:33:30.995Z,97398.98
2023-04-20T05:35:59.491Z,97406.42
2023-04-20T05:38:27.485Z,97408.48
2023-04-20T05:40:56.859Z,97413.46
2023-04-20T05:43:25.232Z,97415.14
2023-04-20T05:45:53.230Z,97416.52
2023-04-20T05:48:21.681Z,97420.02
2023-04-20T05:50:49.570Z,97423.46
2023-04-20T05:53:17.613Z,97426.67
2023-04-20T05:55:45.627Z,97425.11
2023-04-20T05:58:14.185Z,97421.84
2023-04-20T06:00:42.456Z,97417.87
2023-04-20T06:03:10.780Z,97417.67
2023-04-20T06:05:39.160Z,97414.20
2023-04-20T06:08:07.304Z,97411.73
2023-04-20T06:10:35.414Z,97413.98
2023-04-20T06:13:03.532Z,97410.23
2023-04-20T06:15:32.002Z,97412.30
2023-04-20T06:18:01.870Z,97408.53
2023-04-20T06:20:30.302Z,97404.38
2023-04-20T06:22:58.376Z,97404.35
2023-04-20T06:25:26.446Z,97406.23
2023-04-20T06:27:54.517Z,97402.46
2023-04-20T06:30:23.097Z,97399.17
2023-04-20T06:32:51.466Z,97396.35
2023-04-20T06:35:19.644Z,97391.22
2023-04-20T06:37:47.713Z,97388.43
2023-04-20T06:40:16.509Z,97388.36
2023-04-20T06:42:45.763Z,97389.58
2023-04-20T06:45:14.082Z,97389.92
2023-04-20T06:47:42.440Z,97389.75
2023-04-20T06:50:11.360Z,97390.64
2023-04-20T06:52:40.774Z,97388.58
2023-04-20T06:55:09.407Z,97387.61
2023-04-20T06:57:38.923Z,97384.70
2023-04-20T07:00:09.287Z,97383.23
2023-04-20T07:02:43.777Z,97380.04
2023-04-20T07:05:12.190Z,97379.14
2023-04-20T07:07:40.955Z,97378.29
2023-04-20T07:10:11.746Z,97375.06
2023-04-20T07:12:42.899Z,97376.98
2023-04-20T07:15:12.650Z,97376.12
2023-04-20T07:17:41.396Z,97375.64
2023-04-20T07:20:10.357Z,97375.70
2023-04-20T07:22:39.325Z,97372.16
2023-04-20T07:25:09.799Z,97372.39
2023-04-20T07:27:40.250Z,97367.19
2023-04-20T07:30:10.635Z,97369.10
2023-04-20T07:32:41.553Z,97369.44
2023-04-20T07:35:10.414Z,97368.98
2023-04-20T07:37:38.613Z,97372.73
2023-04-20T07:40:07.745Z,97371.99
2023-04-20T07:42:37.403Z,97366.50
2023-04-20T07:45:07.002Z,97364.65
2023-04-20T07:47:36.189Z,97366.92
2023-04-20T07:50:06.037Z,97363.67
2023-04-20T07:52:34.835Z,97359.59
2023-04-20T07:55:03.209Z,97359.14
2023-04-20T07:57:31.596Z,97359.45
2023-04-20T07:59:59.651Z,97366.85
2023-04-20T08:02:27.832Z,97366.38
2023-04-20T08:04:56.278Z,97363.73
2023-04-20T08:07:24.765Z,97364.45
2023-04-20T08:09:53.074Z,97364.77
2023-04-20T08:12:21.239Z,97361.33
2023-04-20T08:14:49.411Z,97361.17
2023-04-20T08:17:17.431Z,97359.37
2023-04-20T08:19:46.115Z,97359.80
2023-04-20T08:22:14.476Z,97360.48
2023-04-20T08:24:42.620Z,97362.70
2023-04-20T08:27:10.588Z,97360.82
2023-04-20T08:29:39.797Z,97358.77
2023-04-20T08:32:12.582Z,97359.11
2023-04-20T08:34:41.210Z,97356.42
2023-04-20T08:37:09.637Z,97350.52
2023-04-20T08:39:39.243Z,97346.41
2023-04-20T08:42:07.343Z,97345.22
2023-04-20T08:44:35.501Z,97345.27
2023-04-20T08:47:04.364Z,97346.77
2023-04-20T08:49:33.707Z,97343.11
2023-04-20T08:52:01.762Z,97341.70
2023-04-20T08:54:30.026Z,97338.10
2023-04-20T08:56:59.886Z,97341.46
2023-04-20T08:59:28.134Z,97342.05
2023-04-20T09:01:56.362Z,97341.08
2023-04-20T09:04:29.577Z,97343.20
2023-04-20T09:06:57.958Z,97335.45
2023-04-20T09:09:27.271Z,97332.35
2023-04-20T09:12:07.649Z,97336.73
2023-04-20T09:14:47.141Z,97334.58
2023-04-20T09:17:16.264Z,97336.20
2023-04-20T09:19:46.073Z,97333.79
2023-04-20T09:22:14.142Z,97331.80
2023-04-20T09:24:43.144Z,97329.68
2023-04-20T09:27:19.120Z,97329.58
2023-04-20T09:29:58.902Z,97330.34
2023-04-20T09:32:33.061Z,97329.63
2023-04-20T09:35:01.657Z,97322.73
2023-04-20T09:37:29.817Z,97322.76
2023-04-20T09:40:00.883Z,97320.66
2023-04-20T09:42:29.174Z,97326.98
2023-04-20T09:44:57.618Z,97333.73
2023-04-20T09:47:27.507Z,97329.25
2023-04-20T09:49:56.322Z,97327.58
2023-04-20T09:52:27.147Z,97324.12
2023-04-20T09:54:55.446Z,97324.39
2023-04-20T09:57:24.940Z,97323.55
2023-04-20T09:59:54.745Z,97315.81
2023-04-20T10:02:22.993Z,97312.60
2023-04-20T10:05:01.992Z,97310.47
2023-04-20T10:07:31.996Z,97302.30
2023-04-20T10:10:08.700Z,97299.13
2023-04-20T10:12:57.498Z,97301.94
2023-04-20T10:15:40.148Z,97300.28
2023-04-20T10:18:23.949Z,97292.88
2023-04-20T10:21:04.234Z,97288.11
2023-04-20T10:23:32.237Z,97289.30
2023-04-20T10:26:01.753Z,97288.22
2023-04-20T10:28:40.654Z,97285.70
2023-04-20T10:31:13.469Z,97287.06
2023-04-20T10:33:57.350Z,97281.75
2023-04-20T10:36:28.591Z,97283.18
2023-04-20T10:38:57.549Z,97286.20
2023-04-20T10:41:25.984Z,97289.07
2023-04-20T10:43:54.138Z,97294.24
2023-04-20T10:46:25.795Z,97297.56
2023-04-20T10:48:55.023Z,97304.34
2023-04-20T10:51:23.679Z,97305.70
2023-04-20T10:54:02.388Z,97303.04
2023-04-20T10:56:38.189Z,97307.55
2023-04-20T10:59:11.440Z,97306.39
2023-04-20T11:01:41.392Z,97309.24
2023-04-20T11:04:11.774Z,97310.12
2023-04-20T11:06:42.010Z,97310.39
2023-04-20T11:09:28.463Z,97309.64
2023-04-20T11:12:00.483Z,97311.10
2023-04-20T11:14:29.566Z,97312.11
2023-04-20T11:16:57.864Z,97313.11
2023-04-20T11:19:28.481Z,97313.36
2023-04-20T11:21:56.845Z,97309.92
2023-04-20T11:24:26.792Z,97308.15
2023-04-20T11:26:56.356Z,97308.39
2023-04-20T11:29:30.481Z,97308.42
2023-04-20T11:32:00.104Z,97307.67
2023-04-20T11:34:28.464Z,97308.02
2023-04-20T11:36:57.269Z,97304.02
2023-04-20T11:39:29.944Z,97304.02
2023-04-20T11:41:58.394Z,97305.15
2023-04-20T11:44:27.514Z,97301.29
2023-04-20T11:47:00.049Z,97303.48
2023-04-20T11:49:29.179Z,97299.55
2023-04-20T11:51:57.257Z,97297.03
2023-04-20T11:54:27.378Z,97298.41
2023-04-20T11:56:55.338Z,97291.10
2023-04-20T11:59:23.535Z,97292.64
2023-04-20T12:01:52.429Z,97290.46
2023-04-20T12:04:20.908Z,97287.77
2023-04-20T12:06:49.271Z,97291.44
2023-04-20T12:09:17.813Z,97292.11
2023-04-20T12:11:46.143Z,97288.23
2023-04-20T12:14:14.110Z,97284.88
2023-04-20T12:16:42.389Z,97288.98
2023-04-20T12:19:10.762Z,97289.48
2023-04-20T12:21:38.933Z,97288.16
2023-04-20T12:24:07.974Z,97282.98
2023-04-20T12:26:38.610Z,97283.34
2023-04-20T12:29:07.775Z,97281.83
2023-04-20T12:31:36.694Z,97275.65
2023-04-20T12:34:04.978Z,97270.17
2023-04-20T12:36:35.209Z,97266.73
2023-04-20T12:39:04.231Z,97268.85
2023-04-20T12:41:33.435Z,97270.90
2023-04-20T12:44:04.143Z,97273.35
2023-04-20T12:46:34.253Z,97270.66
2023-04-20T12:49:02.363Z,97271.64
2023-04-20T12:51:30.432Z,97268.12
2023-04-20T12:53:58.501Z,97266.33
2023-04-20T12:56:27.041Z,97269.37
2023-04-20T12:58:55.476Z,97264.80
2023-04-20T13:01:23.479Z,97259.68
2023-04-20T13:03:52.574Z,97256.30
2023-04-20T13:06:21.014Z,97254.95
2023-04-20T13:08:50.623Z,97255.26
2023-04-20T13:11:18.688Z,97253.42
2023-04-20T13:13:46.769Z,97258.88
2023-04-20T13:16:14.897Z,97252.95
2023-04-20T13:18:43.251Z,97254.67
2023-04-20T13:21:11.271Z,97250.45
2023-04-20T13:23:40.066Z,97247.47
2023-04-20T13:26:09.072Z,97247.66
2023-04-20T13:28:37.868Z,97246.24
2023-04-20T13:31:06.179Z,97247.63
2023-04-20T13:33:34.609Z,97251.62
2023-04-20T13:36:02.788Z,97253.35
2023-04-20T13:38:30.963Z,97251.77
2023-04-20T13:40:59.132Z,97251.60
2023-04-20T13:43:27.206Z,97250.66
2023-04-20T13:45:55.562Z,97247.73
2023-04-20T13:48:23.865Z,97252.97
2023-04-20T13:50:54.214Z,97250.11
2023-04-20T13:53:22.260Z,97251.75
2023-04-20T13:55:50.351Z,97248.81
2023-04-20T13:58:18.363Z,97249.75
2023-04-20T14:00:46.598Z,97246.87
2023-04-20T14:03:15.852Z,97246.36
2023-04-20T14:05:45.079Z,97251.31
2023-04-20T14:08:13.968Z,97252.05
2023-04-20T14:10:42.548Z,97249.78
2023-04-20T14:13:10.563Z,97253.96
2023-04-20T14:15:38.641Z,97256.59
2023-04-20T14:18:06.786Z,97254.10
2023-04-20T14:20:35.035Z,97254.62
2023-04-20T14:23:03.012Z,97259.67
2023-04-20T14:25:31.472Z,97257.08
2023-04-20T14:27:59.465Z,97259.04
2023-04-20T14:30:27.538Z,97260.65
2023-04-20T14:33:00.893Z,97260.21
2023-04-20T14:35:28.974Z,97263.85
2023-04-20T14:37:57.024Z,97263.23
2023-04-20T14:40:25.056Z,97261.66
2023-04-20T14:42:53.015Z,97257.48
2023-04-20T14:45:21.495Z,97255.44
2023-04-20T14:47:57.074Z,97253.81
2023-04-20T14:50:29.227Z,97249.98
2023-04-20T14:52:57.275Z,97254.98
2023-04-20T14:55:26.119Z,97252.83
2023-04-20T14:57:57.376Z,97250.78
2023-04-20T15:00:28.387Z,97252.73
2023-04-20T15:02:57.413Z,97253.63
2023-04-20T15:05:27.328Z,97252.52
2023-04-20T15:07:57.600Z,97258.08
2023-04-20T15:10:25.966Z,97257.04
2023-04-20T15:12:54.037Z,97258.38
2023-04-20T15:15:22.223Z,97256.05
2023-04-20T15:17:50.569Z,97255.88
2023-04-20T15:20:18.977Z,97260.44
2023-04-20T15:22:47.040Z,97262.92
2023-04-20T15:25:15.217Z,97261.26
2023-04-20T15:27:43.186Z,97261.02
2023-04-20T15:30:11.612Z,97258.99
2023-04-20T15:32:40.482Z,97261.48
2023-04-20T15:35:08.646Z,97263.83
2023-04-20T15:37:36.807Z,97263.67
2023-04-20T15:40:05.698Z,97259.92
2023-04-20T15:42:34.172Z,97265.16
2023-04-20T15:45:02.186Z,97265.67
2023-04-20T15:47:30.231Z,97267.15
2023-04-20T15:50:01.817Z,97267.73
2023-04-20T15:52:31.442Z,97270.33
2023-04-20T15:54:59.446Z,97267.41
2023-04-20T15:57:27.723Z,97267.10
2023-04-20T15:59:55.824Z,97268.70
2023-04-20T16:02:24.944Z,97265.45
2023-04-20T16:04:53.288Z,97260.92
2023-04-20T16:07:21.555Z,97259.84
2023-04-20T16:09:49.623Z,97258.73
2023-04-20T16:12:17.908Z,97258.30
2023-04-20T16:14:46.178Z,97256.77
2023-04-20T16:17:14.456Z,97260.81
2023-04-20T16:19:42.637Z,97261.67
2023-04-20T16:22:11.416Z,97262.70
2023-04-20T16:24:39.889Z,97260.63
2023-04-20T16:27:07.899Z,97258.58
2023-04-20T16:29:36.246Z,97261.61
2023-04-20T16:32:04.560Z,97264.84
2023-04-20T16:34:32.893Z,97265.48
2023-04-20T16:37:01.122Z,97266.45
2023-04-20T16:39:29.274Z,97265.55
2023-04-20T16:41:58.144Z,97267.91
2023-04-20T16:44:26.528Z,97269.42
2023-04-20T16:46:54.887Z,97268.11
2023-04-20T16:49:23.017Z,97274.52
2023-04-20T16:51:51.152Z,97274.69
2023-04-20T16:54:19.407Z,97276.27
2023-04-20T16:56:47.600Z,97274.88
2023-04-20T16:59:16.175Z,97274.54
2023-04-20T17:01:44.292Z,97278.09
2023-04-20T17:04:13.710Z,97279.80
2023-04-20T17:06:42.029Z,97278.48
2023-04-20T17:09:11.418Z,97284.69
2023-04-20T17:11:40.030Z,97285.60
2023-04-20T17:14:08.533Z,97284.05
2023-04-20T17:16:36.735Z,97290.58
2023-04-20T17:19:04.963Z,97290.38
2023-04-20T17:21:33.029Z,97292.29
2023-04-20T17:24:01.200Z,97291.11
2023-04-20T17:26:29.307Z,97294.99
2023-04-20T17:28:57.352Z,97299.30
2023-04-20T17:31:25.868Z,97306.43
2023-04-20T17:33:53.994Z,97309.77
2023-04-20T17:36:21.972Z,97310.23
2023-04-20T17:38:49.932Z,97310.09
2023-04-20T17:41:18.107Z,97316.49
2023-04-20T17:43:46.176Z,97315.67
2023-04-20T17:46:14.375Z,97311.40
2023-04-20T17:48:42.525Z,97318.66
2023-04-20T17:51:13.759Z,97321.80
2023-04-20T17:53:41.732Z,97324.96
2023-04-20T17:56:11.064Z,97325.99
2023-04-20T17:58:39.318Z,97327.86
2023-04-20T18:01:07.433Z,97331.95
2023-04-20T18:03:35.807Z,97336.34
2023-04-20T18:06:04.560Z,97339.09
2023-04-20T18:08:32.743Z,97342.66
2023-04-20T18:11:02.348Z,97341.23
2023-04-20T18:13:30.409Z,97342.89
2023-04-20T18:15:59.948Z,97343.33
2023-04-20T18:18:28.190Z,97343.09
2023-04-20T18:20:56.404Z,97342.27
2023-04-20T18:23:24.433Z,97344.47
2023-04-20T18:25:53.574Z,97347.02
2023-04-20T18:28:22.217Z,97350.84
2023-04-20T18:30:50.492Z,97349.02
2023-04-20T18:33:18.462Z,97352.95
2023-04-20T18:35:48.070Z,97355.36
2023-04-20T18:38:16.357Z,97357.91
2023-04-20T18:40:45.346Z,97357.48
2023-04-20T18:43:13.310Z,97359.88
2023-04-20T18:45:41.390Z,97363.63
2023-04-20T18:48:09.418Z,97366.52
2023-04-20T18:50:37.943Z,97369.63
2023-04-20T18:53:06.112Z,97371.86
2023-04-20T18:55:34.285Z,97373.91
2023-04-20T18:58:02.405Z,97376.34
2023-04-20T19:00:30.721Z,97375.86
2023-04-20T19:02:58.971Z,97380.11
2023-04-20T19:05:27.596Z,97381.66
2023-04-20T19:07:55.973Z,97380.95
2023-04-20T19:10:25.885Z,97382.48
2023-04-20T19:12:55.397Z,97381.68
2023-04-20T19:15:25.830Z,97376.69
2023-04-20T19:17:56.068Z,97378.13
2023-04-20T19:20:25.144Z,97372.20
2023-04-20T19:22:53.332Z,97374.95
2023-04-20T19:25:21.484Z,97373.66
2023-04-20T19:27:49.558Z,97371.44
2023-04-20T19:30:17.534Z,97370.27
2023-04-20T19:32:45.895Z,97370.49
2023-04-20T19:35:14.080Z,97367.54
2023-04-20T19:37:42.150Z,97367.92
2023-04-20T19:40:10.738Z,97368.44
2023-04-20T19:42:40.757Z,97370.94
2023-04-20T19:45:09.342Z,97375.88
2023-04-20T19:47:37.529Z,97376.27
2023-04-20T19:50:06.405Z,97372.65
2023-04-20T19:52:35.502Z,97372.69
2023-04-20T19:55:04.806Z,97373.84
2023-04-20T19:57:32.861Z,97366.67
2023-04-20T20:00:00.885Z,97367.83
2023-04-20T20:02:29.015Z,97364.46
2023-04-20T20:04:57.228Z,97359.23
2023-04-20T20:07:26.586Z,97361.97
2023-04-20T20:09:54.862Z,97364.90
2023-04-20T20:12:23.240Z,97364.30
2023-04-20T20:14:51.424Z,97365.95
2023-04-20T20:17:19.740Z,97370.50
2023-04-20T20:19:47.981Z,97371.61
2023-04-20T20:22:16.792Z,97366.79
2023-04-20T20:24:44.830Z,97366.77
2023-04-20T20:27:13.083Z,97370.06
2023-04-20T20:29:41.394Z,97369.55
2023-04-20T20:32:09.450Z,97371.65
2023-04-20T20:34:37.531Z,97375.91
2023-04-20T20:37:05.529Z,97380.32
2023-04-20T20:39:33.563Z,97378.59
2023-04-20T20:42:02.660Z,97379.27
2023-04-20T20:44:33.175Z,97378.20
2023-04-20T20:47:01.412Z,97374.13
2023-04-20T20:49:29.533Z,97375.10
2023-04-20T20:51:57.716Z,97378.96
2023-04-20T20:54:25.778Z,97376.45
2023-04-20T20:56:53.965Z,97374.52
2023-04-20T20:59:22.040Z,97374.82
2023-04-20T21:01:50.108Z,97373.59
2023-04-20T21:04:18.360Z,97371.80
2023-04-20T21:06:46.451Z,97369.98
2023-04-20T21:09:15.638Z,97370.54
2023-04-20T21:11:43.923Z,97373.45
2023-04-20T21:14:11.905Z,97376.73
2023-04-20T21:16:40.220Z,97374.21
2023-04-20T21:19:08.516Z,97376.41
2023-04-20T21:21:36.658Z,97373.96
2023-04-20T21:24:04.845Z,97378.31
2023-04-20T21:26:35.923Z,97378.23
2023-04-20T21:29:04.941Z,97380.17
2023-04-20T21:31:33.736Z,97381.27
2023-04-20T21:34:01.890Z,97382.71
2023-04-20T21:36:29.861Z,97380.92
2023-04-20T21:38:57.933Z,97384.14
2023-04-20T21:41:30.005Z,97386.25
2023-04-20T21:43:58.277Z,97379.39
2023-04-20T21:46:26.243Z,97378.17
2023-04-20T21:48:54.333Z,97382.98
2023-04-20T21:51:22.709Z,97381.49
2023-04-20T21:53:50.688Z,97374.04
2023-04-20T21:56:19.464Z,97377.08
2023-04-20T21:58:47.524Z,97376.71
2023-04-20T22:01:15.620Z,97377.04
2023-04-20T22:03:43.921Z,97381.55
2023-04-20T22:06:12.155Z,97382.96
2023-04-20T22:08:40.216Z,97386.29
2023-04-20T22:11:08.341Z,97384.42
2023-04-20T22:13:37.289Z,97380.73
2023-04-20T22:16:06.143Z,97378.34
2023-04-20T22:18:34.251Z,97379.98
2023-04-20T22:21:02.320Z,97380.01
2023-04-20T22:23:30.595Z,97378.70
2023-04-20T22:25:58.777Z,97377.98
2023-04-20T22:28:27.061Z,97382.63
2023-04-20T22:30:55.200Z,97384.47
2023-04-20T22:33:23.296Z,97385.71
2023-04-20T22:35:51.506Z,97387.33
2023-04-20T22:38:19.618Z,97384.08
2023-04-20T22:40:47.817Z,97382.36
2023-04-20T22:43:16.046Z,97384.27
2023-04-20T22:45:44.165Z,97385.34
2023-04-20T22:48:12.235Z,97381.79
2023-04-20T22:50:40.820Z,97384.10
2023-04-20T22:53:08.894Z,97385.89
2023-04-20T22:55:36.845Z,97389.30
2023-04-20T22:58:04.934Z,97391.23
2023-04-20T23:00:33.565Z,97389.48
2023-04-20T23:03:01.791Z,97388.34
2023-04-20T23:05:30.082Z,97387.98
2023-04-20T23:08:00.694Z,97388.04
2023-04-20T23:10:29.696Z,97389.39
2023-04-20T23:12:57.774Z,97389.29
2023-04-20T23:15:26.061Z,97389.55
2023-04-20T23:17:57.195Z,97384.58
2023-04-20T23:20:25.537Z,97384.47
2023-04-20T23:22:53.630Z,97386.13
2023-04-20T23:25:21.717Z,97383.08
2023-04-20T23:27:49.776Z,97385.09
2023-04-20T23:30:17.855Z,97384.09
2023-04-20T23:32:46.152Z,97386.16
2023-04-20T23:35:14.302Z,97385.53
2023-04-20T23:37:42.372Z,97387.00
2023-04-20T23:40:11.065Z,97384.36
2023-04-20T23:42:39.133Z,97388.42
2023-04-20T23:45:08.346Z,97388.11
2023-04-20T23:47:36.399Z,97385.95
2023-04-20T23:50:05.091Z,97387.30
2023-04-20T23:52:33.164Z,97383.15
2023-04-20T23:55:01.356Z,97384.33
2023-04-20T23:57:29.404Z,97383.14
2023-04-20T23:59:57.475Z,97383.81
